createdAt,value
2018-09-21T00:03:02.819Z,80.92
2018-09-21T00:07:57.424Z,81.94
2018-09-21T00:12:51.980Z,81.89
2018-09-21T00:17:46.480Z,81.95
2018-09-21T00:22:40.935Z,82.27
2018-09-21T00:27:35.397Z,82.26
2018-09-21T00:32:29.939Z,81.97
2018-09-21T00:37:24.508Z,82.47
2018-09-21T00:42:19.158Z,82.12
2018-09-21T00:47:13.685Z,81.55
2018-09-21T00:52:08.516Z,82.00
2018-09-21T00:57:03.040Z,82.22
2018-09-21T01:01:57.520Z,81.35
2018-09-21T01:06:52.072Z,82.57
2018-09-21T01:11:46.603Z,82.50
2018-09-21T01:16:41.116Z,82.45
2018-09-21T01:21:35.724Z,83.46
2018-09-21T01:26:30.239Z,82.93
2018-09-21T01:31:24.894Z,82.79
2018-09-21T01:36:19.522Z,83.12
2018-09-21T01:41:14.145Z,83.46
2018-09-21T01:46:08.858Z,83.44
2018-09-21T01:51:03.564Z,83.47
2018-09-21T01:55:58.194Z,84.12
2018-09-21T02:00:52.921Z,85.16
2018-09-21T02:05:47.522Z,85.33
2018-09-21T02:10:42.203Z,85.81
2018-09-21T02:15:36.774Z,85.57
2018-09-21T02:20:31.476Z,85.71
2018-09-21T02:25:26.131Z,84.55
2018-09-21T02:30:20.704Z,84.48
2018-09-21T02:35:15.159Z,85.83
2018-09-21T02:40:09.681Z,86.08
2018-09-21T02:45:04.219Z,87.35
2018-09-21T02:49:58.777Z,87.13
2018-09-21T02:54:53.266Z,86.48
2018-09-21T02:59:47.773Z,87.57
2018-09-21T03:04:47.365Z,86.90
2018-09-21T03:09:41.930Z,87.30
2018-09-21T03:14:36.588Z,85.64
2018-09-21T03:19:31.064Z,87.30
2018-09-21T03:24:25.531Z,87.34
2018-09-21T03:29:20.091Z,88.09
2018-09-21T03:34:14.572Z,87.39
2018-09-21T03:39:10.269Z,88.01
2018-09-21T03:44:04.853Z,86.42
2018-09-21T03:48:59.452Z,87.37
2018-09-21T03:53:53.965Z,88.37
2018-09-21T03:58:48.678Z,88.19
2018-09-21T04:03:43.172Z,88.34
2018-09-21T04:08:37.816Z,87.86
2018-09-21T04:13:32.384Z,87.72
2018-09-21T04:18:26.946Z,87.97
2018-09-21T04:23:21.637Z,88.60
2018-09-21T04:28:16.304Z,89.63
2018-09-21T04:33:10.977Z,90.63
2018-09-21T04:38:05.580Z,88.85
2018-09-21T04:43:00.185Z,88.36
2018-09-21T04:47:54.920Z,89.57
2018-09-21T04:52:49.621Z,88.28
2018-09-21T04:57:44.468Z,88.72
2018-09-21T05:02:39.157Z,88.75
2018-09-21T05:07:34.682Z,87.64
2018-09-21T05:12:29.637Z,88.26
2018-09-21T05:17:24.409Z,88.72
2018-09-21T05:22:19.152Z,88.91
2018-09-21T05:27:14.190Z,88.98
2018-09-21T05:32:10.313Z,87.73
2018-09-21T05:42:15.945Z,82.20
2018-09-21T05:47:11.845Z,81.25
2018-09-21T05:52:06.752Z,78.93
2018-09-21T05:57:02.522Z,76.77
2018-09-21T06:01:57.390Z,75.06
2018-09-21T06:06:52.271Z,73.17
2018-09-21T06:11:49.357Z,72.47
2018-09-21T06:17:00.969Z,68.92
2018-09-21T06:21:56.504Z,69.04
2018-09-21T06:26:52.185Z,68.11
2018-09-21T06:31:46.748Z,69.51
2018-09-21T06:36:46.184Z,69.57
2018-09-21T06:41:40.862Z,70.89
2018-09-21T06:46:35.436Z,70.00
2018-09-21T06:51:31.862Z,70.54
2018-09-21T06:56:26.720Z,71.47
2018-09-21T07:01:21.274Z,72.43
2018-09-21T07:06:18.099Z,73.27
2018-09-21T07:11:18.187Z,72.93
2018-09-21T07:16:13.069Z,73.03
2018-09-21T07:21:08.784Z,72.61
2018-09-21T07:26:03.553Z,72.08
2018-09-21T07:30:58.427Z,71.18
2018-09-21T07:35:52.996Z,69.39
2018-09-21T07:40:47.496Z,70.25
2018-09-21T07:45:42.160Z,69.02
2018-09-21T07:50:36.837Z,66.85
2018-09-21T07:55:31.442Z,67.44
2018-09-21T08:00:26.167Z,67.38
2018-09-21T08:05:25.582Z,66.65
2018-09-21T08:10:25.368Z,65.46
2018-09-21T08:15:19.918Z,64.11
2018-09-21T08:20:14.506Z,61.94
2018-09-21T08:25:10.146Z,61.41
2018-09-21T08:30:04.953Z,58.96
2018-09-21T08:35:01.599Z,58.41
2018-09-21T08:39:56.239Z,57.84
2018-09-21T08:44:51.557Z,60.08
2018-09-21T08:49:59.783Z,59.40
2018-09-21T08:54:56.352Z,58.36
2018-09-21T08:59:52.009Z,57.66
2018-09-21T09:04:46.622Z,58.56
2018-09-21T09:09:41.130Z,58.42
2018-09-21T09:14:35.744Z,58.52
2018-09-21T09:19:30.264Z,57.97
2018-09-21T09:24:24.738Z,57.25
2018-09-21T09:29:19.272Z,57.25
2018-09-21T09:34:13.685Z,58.25
2018-09-21T09:39:11.633Z,57.83
2018-09-21T09:44:10.892Z,56.26
2018-09-21T09:49:05.916Z,55.09
2018-09-21T09:54:00.289Z,54.54
2018-09-21T09:58:54.888Z,52.16
2018-09-21T10:03:50.843Z,47.28
2018-09-21T10:08:45.617Z,46.04
2018-09-21T10:13:40.367Z,45.92
2018-09-21T10:18:36.138Z,46.14
2018-09-21T10:23:32.090Z,45.65
2018-09-21T10:28:26.859Z,44.68
2018-09-21T10:33:21.291Z,44.80
2018-09-21T10:38:16.112Z,44.04
2018-09-21T10:43:11.845Z,44.60
2018-09-21T10:48:14.990Z,44.49
2018-09-21T10:53:10.490Z,44.62
2018-09-21T10:58:05.467Z,43.37
2018-09-21T11:03:00.161Z,42.79
2018-09-21T11:07:59.773Z,42.12
2018-09-21T11:13:03.199Z,42.84
2018-09-21T11:17:59.998Z,40.86
2018-09-21T11:22:55.912Z,41.18
2018-09-21T11:27:50.906Z,41.40
2018-09-21T11:32:46.254Z,41.43
2018-09-21T11:37:42.924Z,40.49
2018-09-21T11:42:39.102Z,41.29
2018-09-21T11:47:34.646Z,41.25
2018-09-21T11:52:29.458Z,41.32
2018-09-21T11:57:24.051Z,39.87
2018-09-21T12:02:18.866Z,40.33
2018-09-21T12:07:27.929Z,40.00
2018-09-21T12:12:23.609Z,40.08
2018-09-21T12:17:18.073Z,39.81
2018-09-21T12:22:12.615Z,40.41
2018-09-21T12:27:11.997Z,40.36
2018-09-21T12:32:10.873Z,39.06
2018-09-21T12:37:09.512Z,39.77
2018-09-21T12:42:09.291Z,39.75
2018-09-21T12:47:05.156Z,39.57
2018-09-21T12:51:59.624Z,39.38
2018-09-21T12:56:54.184Z,38.44
2018-09-21T13:01:48.644Z,39.15
2018-09-21T13:06:43.035Z,36.74
2018-09-21T13:11:37.742Z,36.42
2018-09-21T13:16:32.255Z,37.07
2018-09-21T13:21:26.938Z,37.64
2018-09-21T13:26:22.597Z,37.29
2018-09-21T13:31:18.309Z,38.13
2018-09-21T13:36:14.764Z,38.43
2018-09-21T13:41:09.216Z,38.25
2018-09-21T13:46:03.703Z,38.55
2018-09-21T13:51:06.714Z,40.03
2018-09-21T13:56:01.530Z,42.56
2018-09-21T14:00:56.000Z,42.85
2018-09-21T14:05:50.500Z,42.25
2018-09-21T14:10:45.000Z,44.16
2018-09-21T14:15:39.413Z,46.48
2018-09-21T14:20:34.479Z,51.64
2018-09-21T14:25:29.553Z,54.23
2018-09-21T14:30:24.168Z,55.87
2018-09-21T14:35:18.983Z,56.11
2018-09-21T14:40:13.585Z,56.16
2018-09-21T14:45:08.257Z,55.96
2018-09-21T14:50:02.764Z,54.99
2018-09-21T14:55:02.958Z,55.84
2018-09-21T14:59:58.563Z,57.50
2018-09-21T15:04:53.515Z,58.55
2018-09-21T15:09:48.330Z,58.31
2018-09-21T15:14:42.826Z,57.26
2018-09-21T15:19:37.437Z,55.88
2018-09-21T15:24:32.775Z,55.88
2018-09-21T15:29:27.328Z,55.22
2018-09-21T15:34:21.926Z,55.28
2018-09-21T15:39:16.565Z,55.66
2018-09-21T15:44:11.237Z,55.32
2018-09-21T15:49:06.390Z,55.41
2018-09-21T15:54:01.245Z,55.75
2018-09-21T15:58:56.965Z,56.22
2018-09-21T16:03:51.512Z,55.99
2018-09-21T16:08:46.046Z,56.81
2018-09-21T16:13:40.528Z,56.91
2018-09-21T16:18:35.065Z,57.22
2018-09-21T16:23:29.532Z,56.58
2018-09-21T16:28:24.044Z,56.46
2018-09-21T16:33:18.653Z,56.20
2018-09-21T16:38:28.413Z,55.26
2018-09-21T16:43:36.260Z,55.12
2018-09-21T16:48:46.419Z,54.45
2018-09-21T16:53:52.686Z,54.80
2018-09-21T16:58:47.676Z,54.27
2018-09-21T17:03:42.141Z,54.27
2018-09-21T17:08:36.842Z,53.26
2018-09-21T17:13:31.364Z,52.86
2018-09-21T17:18:25.830Z,53.06
2018-09-21T17:23:20.364Z,52.71
2018-09-21T17:28:15.445Z,56.67
2018-09-21T17:33:09.948Z,62.10
2018-09-21T17:38:04.426Z,65.37
2018-09-21T17:42:58.913Z,68.87
2018-09-21T17:47:54.194Z,72.86
2018-09-21T17:52:48.999Z,75.59
2018-09-21T17:57:43.545Z,75.55
2018-09-21T18:02:38.085Z,76.00
2018-09-21T18:07:32.593Z,76.97
2018-09-21T18:12:27.012Z,76.35
2018-09-21T18:17:21.561Z,78.16
2018-09-21T18:22:16.118Z,78.46
2018-09-21T18:27:11.361Z,79.09
2018-09-21T18:32:06.201Z,79.70
2018-09-21T18:37:00.805Z,78.36
2018-09-21T18:41:55.663Z,79.59
2018-09-21T18:46:50.414Z,81.13
2018-09-21T18:51:45.013Z,74.81
2018-09-21T18:56:40.137Z,74.24
2018-09-21T19:01:34.767Z,76.53
2018-09-21T19:06:29.344Z,73.71
2018-09-21T19:11:23.865Z,72.45
2018-09-21T19:16:18.432Z,72.92
2018-09-21T19:21:12.920Z,70.18
2018-09-21T19:26:07.589Z,71.02
2018-09-21T19:31:03.527Z,67.27
2018-09-21T19:35:58.093Z,68.18
2018-09-21T19:40:52.585Z,66.99
2018-09-21T19:45:47.143Z,66.69
2018-09-21T19:50:41.704Z,65.00
2018-09-21T19:55:36.704Z,63.22
2018-09-21T20:00:31.207Z,62.48
2018-09-21T20:05:25.769Z,61.15
2018-09-21T20:10:20.229Z,62.21
2018-09-21T20:15:14.720Z,59.65
2018-09-21T20:20:09.508Z,59.16
2018-09-21T20:25:04.189Z,59.58
2018-09-21T20:30:03.769Z,59.50
2018-09-21T20:34:58.318Z,59.47
2018-09-21T20:39:52.833Z,59.04
2018-09-21T20:44:47.401Z,59.33
2018-09-21T20:49:41.901Z,58.50
2018-09-21T20:54:36.432Z,58.74
2018-09-21T20:59:31.047Z,57.16
2018-09-21T21:04:25.657Z,55.52
2018-09-21T21:09:20.752Z,56.48
2018-09-21T21:14:15.416Z,56.24
2018-09-21T21:19:10.040Z,56.59
2018-09-21T21:24:04.594Z,57.78
2018-09-21T21:28:59.471Z,66.07
2018-09-21T21:33:54.313Z,68.97
2018-09-21T21:38:49.118Z,69.11
2018-09-21T21:43:43.612Z,68.98
2018-09-21T21:48:38.457Z,69.39
2018-09-21T21:53:33.048Z,70.58
2018-09-21T21:58:27.488Z,71.18
2018-09-21T22:03:21.992Z,72.00
2018-09-21T22:08:16.608Z,72.28
2018-09-21T22:13:16.295Z,72.62
2018-09-21T22:18:10.829Z,72.64
2018-09-21T22:23:06.161Z,72.63
2018-09-21T22:28:00.665Z,73.70
2018-09-21T22:32:55.172Z,73.91
2018-09-21T22:37:50.015Z,74.04
2018-09-21T22:42:44.512Z,73.85
2018-09-21T22:47:39.275Z,74.31
2018-09-21T22:52:33.754Z,74.39
2018-09-21T22:57:28.248Z,74.20
2018-09-21T23:02:22.732Z,73.26
2018-09-21T23:07:17.352Z,73.36
2018-09-21T23:12:11.853Z,72.73
2018-09-21T23:17:06.397Z,73.21
2018-09-21T23:22:01.027Z,73.59
2018-09-21T23:26:56.929Z,73.09
2018-09-21T23:31:51.431Z,72.47
2018-09-21T23:36:45.920Z,72.35
2018-09-21T23:41:40.704Z,71.60
2018-09-21T23:46:35.129Z,71.83
2018-09-21T23:51:29.716Z,71.45
2018-09-21T23:56:24.204Z,71.33
